Time;durP1;ratioP1;P1;durP2;ratioP2;P2;SDS_P1;SDS_P2;PMS_P1;PMS_P2;Temp;Humidity;BMP_temperature;BMP_pressure;BME280_temperature;BME280_humidity;BME280_pressure;Samples;Min_cycle;Max_cycle;Signal;HPM_P1;HPM_P2
2023/08/17 00:02:18;;;;;;;4.00;1.47;;;17.40;99.90;;;;;;5129938;27;20189;-52
2023/08/17 00:04:45;;;;;;;3.33;1.20;;;17.40;99.90;;;;;;5114106;27;20893;-49
2023/08/17 00:07:13;;;;;;;2.17;1.53;;;17.30;99.90;;;;;;5128700;27;20261;-56
2023/08/17 00:09:40;;;;;;;4.73;1.77;;;17.30;99.90;;;;;;5129339;27;20189;-60
2023/08/17 00:12:07;;;;;;;3.60;1.47;;;17.30;99.90;;;;;;5110594;27;20201;-49
2023/08/17 00:14:34;;;;;;;3.27;1.20;;;17.30;99.90;;;;;;5130379;27;20242;-60
2023/08/17 00:17:01;;;;;;;4.87;1.47;;;17.30;99.90;;;;;;5130786;27;20269;-49
2023/08/17 00:19:28;;;;;;;4.93;1.50;;;17.30;99.90;;;;;;5125750;27;20219;-64
2023/08/17 00:21:55;;;;;;;3.37;1.57;;;17.30;99.90;;;;;;5109822;27;20196;-49
2023/08/17 00:24:24;;;;;;;2.33;1.50;;;17.20;99.90;;;;;;5129937;27;20707;-53
2023/08/17 00:26:50;;;;;;;2.63;1.20;;;17.20;99.90;;;;;;5118804;27;20288;-51
2023/08/17 00:29:17;;;;;;;3.83;1.30;;;17.20;99.90;;;;;;5125960;27;20548;-47
2023/08/17 00:31:43;;;;;;;5.97;1.63;;;17.20;99.90;;;;;;5125604;27;20196;-53
2023/08/17 00:34:10;;;;;;;1.70;1.30;;;17.20;99.90;;;;;;5130154;27;20221;-56
2023/08/17 00:36:37;;;;;;;3.60;1.40;;;17.10;99.90;;;;;;5104959;27;20224;-60
2023/08/17 00:39:04;;;;;;;2.73;1.33;;;17.10;99.90;;;;;;5123114;27;20198;-55
2023/08/17 00:41:32;;;;;;;1.63;1.50;;;17.10;99.90;;;;;;5122518;27;20523;-62
2023/08/17 00:44:01;;;;;;;3.47;1.20;;;17.10;99.90;;;;;;5111709;27;20184;-47
2023/08/17 00:46:27;;;;;;;5.43;1.50;;;17.00;99.90;;;;;;5124980;27;20221;-61
2023/08/17 00:48:55;;;;;;;3.83;1.23;;;17.00;99.90;;;;;;5129438;27;20249;-47
2023/08/17 00:51:23;;;;;;;5.03;1.53;;;17.00;99.90;;;;;;5116314;27;20208;-47
2023/08/17 00:53:51;;;;;;;3.20;1.50;;;17.00;99.90;;;;;;5119685;27;20209;-50
2023/08/17 00:56:18;;;;;;;5.07;1.67;;;17.00;99.90;;;;;;5119945;27;20216;-47
2023/08/17 00:58:46;;;;;;;3.67;1.63;;;17.00;99.90;;;;;;5103594;27;20277;-54
2023/08/17 01:01:13;;;;;;;4.93;1.80;;;17.00;99.90;;;;;;5132435;27;20265;-51
2023/08/17 01:03:41;;;;;;;3.17;1.80;;;16.90;99.90;;;;;;5126753;27;20184;-61
2023/08/17 01:06:09;;;;;;;2.73;1.90;;;16.90;99.90;;;;;;5135077;27;20212;-51
2023/08/17 01:08:37;;;;;;;2.50;1.50;;;16.90;99.90;;;;;;5110200;27;20269;-63
2023/08/17 01:11:12;;;;;;;3.47;1.33;;;16.90;99.90;;;;;;5124920;27;20193;-49
2023/08/17 01:13:50;;;;;;;5.77;1.87;;;16.90;99.90;;;;;;5108297;27;20209;-60
2023/08/17 01:16:22;;;;;;;3.47;1.60;;;16.90;99.90;;;;;;5127061;27;20307;-51
2023/08/17 01:18:52;;;;;;;3.33;1.77;;;16.90;99.90;;;;;;5125996;27;20296;-56
2023/08/17 01:21:23;;;;;;;5.13;1.63;;;16.80;99.90;;;;;;5129843;27;20197;-48
2023/08/17 01:23:52;;;;;;;7.23;1.87;;;16.80;99.90;;;;;;5107095;27;20196;-51
2023/08/17 01:26:19;;;;;;;3.77;1.60;;;16.80;99.90;;;;;;5130137;27;20211;-49
2023/08/17 01:28:48;;;;;;;2.10;1.57;;;16.70;99.90;;;;;;5111724;27;20730;-50
2023/08/17 01:31:23;;;;;;;2.33;1.67;;;16.60;99.90;;;;;;5129300;27;20661;-49
2023/08/17 01:33:55;;;;;;;2.03;1.53;;;16.60;99.90;;;;;;5121826;27;20265;-50
2023/08/17 01:36:27;;;;;;;4.83;1.50;;;16.60;99.90;;;;;;5126810;27;20212;-54
2023/08/17 01:38:57;;;;;;;5.07;1.70;;;16.70;99.90;;;;;;5109054;27;20204;-54
2023/08/17 01:41:26;;;;;;;2.83;2.20;;;16.70;99.90;;;;;;5127509;27;20203;-52
2023/08/17 01:43:54;;;;;;;3.00;1.70;;;16.70;99.90;;;;;;5104252;27;20283;-50
2023/08/17 01:46:22;;;;;;;4.70;1.87;;;16.80;99.90;;;;;;5123625;27;20613;-52
2023/08/17 01:48:49;;;;;;;4.33;1.80;;;16.80;99.90;;;;;;5124989;27;20922;-53
2023/08/17 01:51:20;;;;;;;3.03;1.40;;;16.70;99.90;;;;;;5127856;27;20911;-52
2023/08/17 01:53:47;;;;;;;2.50;1.83;;;16.70;99.90;;;;;;5111670;27;21919;-52
2023/08/17 01:56:15;;;;;;;3.43;1.63;;;16.80;99.90;;;;;;5140666;27;20694;-55
2023/08/17 01:58:42;;;;;;;2.57;1.43;;;16.80;99.90;;;;;;5130955;27;20675;-57
2023/08/17 02:01:09;;;;;;;3.10;1.63;;;16.80;99.90;;;;;;5114920;27;20196;-56
2023/08/17 02:03:36;;;;;;;2.57;1.77;;;16.70;99.90;;;;;;5131711;27;20219;-57
2023/08/17 02:06:03;;;;;;;2.27;1.53;;;16.70;99.90;;;;;;5130395;27;20264;-57
2023/08/17 02:08:30;;;;;;;1.87;1.50;;;16.70;99.90;;;;;;5138417;27;20207;-55
2023/08/17 02:10:57;;;;;;;3.50;1.50;;;16.70;99.90;;;;;;5110303;27;20204;-54
2023/08/17 02:13:27;;;;;;;3.20;1.40;;;16.70;99.90;;;;;;5119124;27;20220;-54
2023/08/17 02:15:54;;;;;;;4.23;1.53;;;16.70;99.90;;;;;;5118028;27;20300;-51
2023/08/17 02:18:21;;;;;;;2.83;1.50;;;16.70;99.90;;;;;;5136951;27;20203;-54
2023/08/17 02:20:47;;;;;;;6.03;1.43;;;16.70;99.90;;;;;;5127685;27;20768;-55
2023/08/17 02:23:14;;;;;;;2.97;1.27;;;16.70;99.90;;;;;;5131321;27;20257;-54
2023/08/17 02:25:41;;;;;;;3.30;1.30;;;16.70;99.90;;;;;;5113636;27;20272;-57
2023/08/17 02:28:08;;;;;;;3.37;1.87;;;16.70;99.90;;;;;;5132788;27;20658;-52
2023/08/17 02:30:36;;;;;;;3.23;1.23;;;16.70;99.90;;;;;;5122026;27;20204;-55
2023/08/17 02:33:03;;;;;;;4.20;1.30;;;16.60;99.90;;;;;;5117584;27;20219;-55
2023/08/17 02:35:31;;;;;;;2.73;1.30;;;16.70;99.90;;;;;;5128938;27;20212;-56
2023/08/17 02:37:58;;;;;;;3.83;1.60;;;16.70;99.90;;;;;;5123005;27;20388;-56
2023/08/17 02:40:25;;;;;;;3.23;1.40;;;16.70;99.90;;;;;;5129123;27;20196;-54
2023/08/17 02:42:52;;;;;;;1.27;1.00;;;16.70;99.90;;;;;;5110345;27;20264;-53
2023/08/17 02:45:18;;;;;;;6.07;1.20;;;16.70;99.90;;;;;;5129703;27;20706;-51
2023/08/17 02:47:47;;;;;;;5.43;1.30;;;16.70;99.90;;;;;;5108778;27;20197;-54
2023/08/17 02:50:15;;;;;;;2.50;1.30;;;16.70;99.90;;;;;;5135187;27;20660;-56
2023/08/17 02:52:43;;;;;;;5.20;1.50;;;16.60;99.90;;;;;;5128936;27;20752;-56
2023/08/17 02:55:10;;;;;;;2.73;1.40;;;16.70;99.90;;;;;;5139106;27;20212;-55
2023/08/17 02:57:37;;;;;;;2.70;1.47;;;16.70;99.90;;;;;;5114815;27;20214;-57
2023/08/17 03:00:06;;;;;;;2.03;1.00;;;16.70;99.90;;;;;;5129167;27;20572;-51
2023/08/17 03:02:33;;;;;;;3.13;1.30;;;16.70;99.90;;;;;;5110064;27;20721;-56
2023/08/17 03:05:04;;;;;;;2.07;1.30;;;16.70;99.90;;;;;;5129985;27;20209;-54
2023/08/17 03:07:31;;;;;;;1.33;1.23;;;16.60;99.90;;;;;;5131858;27;20253;-56
2023/08/17 03:09:57;;;;;;;6.87;1.50;;;16.60;99.90;;;;;;5130735;27;20192;-54
2023/08/17 03:12:24;;;;;;;5.43;1.30;;;16.60;99.90;;;;;;5130947;27;20197;-54
2023/08/17 03:14:51;;;;;;;2.47;1.10;;;16.60;99.90;;;;;;5112372;27;20211;-54
2023/08/17 03:17:18;;;;;;;3.50;1.17;;;16.70;99.90;;;;;;5130344;27;20193;-57
2023/08/17 03:19:45;;;;;;;2.37;1.30;;;16.70;99.90;;;;;;5103915;27;20257;-55
2023/08/17 03:22:13;;;;;;;4.27;1.43;;;16.60;99.90;;;;;;5125944;27;20848;-54
2023/08/17 03:24:40;;;;;;;4.47;1.40;;;16.70;99.90;;;;;;5124578;27;20681;-57
2023/08/17 03:27:07;;;;;;;3.13;1.30;;;16.60;99.90;;;;;;5127761;27;20217;-51
2023/08/17 03:29:34;;;;;;;1.67;1.30;;;16.60;99.90;;;;;;5113010;27;20708;-57
2023/08/17 03:32:01;;;;;;;1.63;1.23;;;16.60;99.90;;;;;;5126365;27;20957;-54
2023/08/17 03:34:29;;;;;;;1.97;1.40;;;16.60;99.90;;;;;;5109891;27;20697;-57
2023/08/17 03:36:55;;;;;;;2.23;1.10;;;16.50;99.90;;;;;;5124908;27;20385;-55
2023/08/17 03:39:24;;;;;;;1.43;1.30;;;16.60;99.90;;;;;;5127368;27;20247;-56
2023/08/17 03:41:51;;;;;;;3.07;1.40;;;16.60;99.90;;;;;;5123149;27;20184;-53
2023/08/17 03:44:18;;;;;;;2.20;1.10;;;16.60;99.90;;;;;;5111357;27;20603;-52
2023/08/17 03:46:44;;;;;;;2.90;1.20;;;16.60;99.90;;;;;;5126032;27;20296;-52
2023/08/17 03:49:11;;;;;;;6.87;1.20;;;16.60;99.90;;;;;;5112095;27;20205;-53
2023/08/17 03:51:38;;;;;;;3.23;1.13;;;16.60;99.90;;;;;;5125058;27;20545;-56
2023/08/17 03:54:05;;;;;;;8.30;1.90;;;16.70;99.90;;;;;;5135026;27;20215;-57
2023/08/17 03:56:33;;;;;;;3.37;1.43;;;16.70;99.90;;;;;;5128184;27;20216;-57
2023/08/17 03:59:00;;;;;;;4.57;1.40;;;16.60;99.90;;;;;;5111508;27;20252;-54
2023/08/17 04:01:27;;;;;;;2.57;1.50;;;16.70;99.90;;;;;;5127509;27;20200;-57
2023/08/17 04:03:54;;;;;;;3.37;1.50;;;16.70;99.90;;;;;;5122971;27;20193;-55
2023/08/17 04:06:21;;;;;;;3.33;1.63;;;16.70;99.90;;;;;;5132293;27;20207;-56
2023/08/17 04:08:49;;;;;;;1.40;1.10;;;16.70;99.90;;;;;;5109582;27;20255;-53
2023/08/17 04:11:16;;;;;;;4.90;1.60;;;16.70;99.90;;;;;;5133087;27;20197;-55
2023/08/17 04:13:44;;;;;;;4.63;1.23;;;16.70;99.90;;;;;;5120835;27;20221;-57
2023/08/17 04:16:11;;;;;;;1.77;1.30;;;16.80;99.90;;;;;;5113584;27;20595;-51
2023/08/17 04:18:39;;;;;;;2.53;1.60;;;16.80;99.90;;;;;;5127390;27;20195;-55
2023/08/17 04:21:05;;;;;;;1.47;1.30;;;16.70;99.90;;;;;;5111103;27;20253;-56
2023/08/17 04:23:32;;;;;;;2.13;1.30;;;16.80;99.90;;;;;;5115316;27;20204;-56
2023/08/17 04:25:59;;;;;;;2.70;1.37;;;16.70;99.90;;;;;;5123552;27;20200;-52
2023/08/17 04:28:28;;;;;;;2.27;1.37;;;16.80;99.90;;;;;;5128828;27;20263;-56
2023/08/17 04:30:56;;;;;;;1.90;1.57;;;16.80;99.90;;;;;;5103283;27;20208;-52
2023/08/17 04:33:24;;;;;;;5.47;1.53;;;16.80;99.90;;;;;;5124393;27;20398;-54
2023/08/17 04:35:51;;;;;;;3.47;1.37;;;16.80;99.90;;;;;;5105629;27;21041;-49
2023/08/17 04:38:18;;;;;;;2.20;1.30;;;16.80;99.90;;;;;;5112735;27;20201;-52
2023/08/17 04:40:45;;;;;;;2.43;1.67;;;16.90;99.90;;;;;;5117751;27;20185;-51
2023/08/17 04:43:12;;;;;;;2.10;1.63;;;16.90;99.90;;;;;;5120587;27;20192;-53
2023/08/17 04:45:39;;;;;;;4.40;1.50;;;16.80;99.90;;;;;;5108398;27;20212;-57
2023/08/17 04:48:08;;;;;;;4.87;1.33;;;16.90;99.90;;;;;;5112120;27;20205;-54
2023/08/17 04:50:36;;;;;;;2.97;1.60;;;16.90;99.90;;;;;;5116109;27;20283;-56
2023/08/17 04:53:03;;;;;;;5.73;1.80;;;16.90;99.90;;;;;;5117459;27;20193;-52
2023/08/17 04:55:31;;;;;;;5.90;1.50;;;16.90;99.90;;;;;;5099326;27;20213;-53
2023/08/17 04:57:58;;;;;;;4.20;1.60;;;16.90;99.90;;;;;;5137423;27;20188;-54
2023/08/17 05:00:27;;;;;;;2.50;1.40;;;16.90;99.90;;;;;;5109752;27;20206;-57
2023/08/17 05:02:55;;;;;;;2.63;1.27;;;16.90;99.90;;;;;;5100660;27;20205;-50
2023/08/17 05:05:26;;;;;;;2.13;1.50;;;16.90;99.90;;;;;;5115807;27;20274;-56
2023/08/17 05:07:54;;;;;;;3.07;1.50;;;17.00;99.90;;;;;;5113544;27;20204;-55
2023/08/17 05:10:21;;;;;;;5.50;2.00;;;17.00;99.90;;;;;;5122099;27;20200;-57
2023/08/17 05:12:48;;;;;;;3.80;1.37;;;17.10;99.90;;;;;;5116871;27;20276;-53
2023/08/17 05:15:16;;;;;;;3.43;1.53;;;17.10;99.90;;;;;;5119804;27;20224;-56
2023/08/17 05:17:42;;;;;;;4.23;1.50;;;17.10;99.90;;;;;;5092075;27;20196;-50
2023/08/17 05:20:13;;;;;;;4.77;1.20;;;17.10;99.90;;;;;;5117334;27;20212;-51
2023/08/17 05:22:42;;;;;;;3.43;1.30;;;17.10;99.90;;;;;;5106098;27;20197;-54
2023/08/17 05:25:09;;;;;;;2.73;1.67;;;17.10;99.90;;;;;;5115525;27;20244;-53
2023/08/17 05:27:38;;;;;;;1.70;1.43;;;17.10;99.90;;;;;;5111442;27;20180;-59
2023/08/17 05:30:06;;;;;;;3.43;1.63;;;17.10;99.90;;;;;;5122491;27;20197;-57
2023/08/17 05:32:33;;;;;;;4.67;2.10;;;17.00;99.90;;;;;;5099528;27;20196;-56
2023/08/17 05:35:00;;;;;;;4.50;1.80;;;17.00;99.90;;;;;;5122449;27;20678;-56
2023/08/17 05:37:27;;;;;;;2.00;1.70;;;17.00;99.90;;;;;;5131276;27;20199;-54
2023/08/17 05:39:55;;;;;;;2.13;1.77;;;16.90;99.90;;;;;;5098061;27;20604;-57
2023/08/17 05:42:22;;;;;;;4.73;1.83;;;17.00;99.90;;;;;;5111708;27;20197;-54
2023/08/17 05:44:49;;;;;;;4.87;1.80;;;16.90;99.90;;;;;;5110518;27;20213;-55
2023/08/17 05:47:18;;;;;;;8.77;1.93;;;16.90;99.90;;;;;;5097659;27;20209;-52
2023/08/17 05:49:45;;;;;;;3.03;1.50;;;16.90;99.90;;;;;;5120034;27;20177;-55
2023/08/17 05:52:13;;;;;;;2.90;1.90;;;16.90;99.90;;;;;;5110709;27;20223;-52
2023/08/17 05:54:40;;;;;;;2.83;2.00;;;16.90;99.90;;;;;;5103177;27;20207;-55
2023/08/17 05:57:08;;;;;;;2.27;2.03;;;16.80;99.90;;;;;;5107293;27;20228;-52
2023/08/17 05:59:35;;;;;;;5.30;1.93;;;16.80;99.90;;;;;;5116630;27;20215;-61
2023/08/17 06:02:02;;;;;;;8.23;2.50;;;16.80;99.90;;;;;;5094812;27;20262;-56
2023/08/17 06:04:28;;;;;;;2.80;2.30;;;16.80;99.90;;;;;;5112998;27;20188;-59
2023/08/17 06:06:56;;;;;;;8.13;2.33;;;16.80;99.90;;;;;;5116024;27;20556;-55
2023/08/17 06:09:23;;;;;;;7.27;2.37;;;16.70;99.90;;;;;;5113188;27;21860;-62
2023/08/17 06:11:49;;;;;;;6.30;2.43;;;16.70;99.90;;;;;;5106191;27;20189;-61
2023/08/17 06:14:18;;;;;;;4.80;2.63;;;16.70;99.90;;;;;;5113308;27;20217;-61
2023/08/17 06:16:44;;;;;;;3.20;2.30;;;16.70;99.90;;;;;;5112351;27;20269;-56
2023/08/17 06:19:11;;;;;;;5.10;2.70;;;16.60;99.90;;;;;;5106792;27;20281;-50
2023/08/17 06:21:38;;;;;;;6.40;3.27;;;16.60;99.90;;;;;;5120103;27;20502;-48
2023/08/17 06:24:05;;;;;;;4.50;2.50;;;16.60;99.90;;;;;;5128952;27;20204;-54
2023/08/17 06:26:32;;;;;;;3.27;2.57;;;16.60;99.90;;;;;;5121640;27;20208;-54
2023/08/17 06:28:59;;;;;;;4.90;2.60;;;16.60;99.90;;;;;;5130803;27;20252;-49
2023/08/17 06:31:28;;;;;;;13.57;3.23;;;16.70;99.90;;;;;;5130868;27;20622;-62
2023/08/17 06:33:54;;;;;;;3.83;2.33;;;16.70;99.90;;;;;;5104920;27;20808;-55
2023/08/17 06:36:21;;;;;;;4.47;2.53;;;16.60;99.90;;;;;;5128506;27;20600;-55
2023/08/17 06:38:48;;;;;;;4.80;2.63;;;16.60;99.90;;;;;;5117708;27;20256;-53
2023/08/17 06:41:15;;;;;;;6.10;3.03;;;16.60;99.90;;;;;;5128979;27;20196;-53
2023/08/17 06:43:42;;;;;;;6.73;3.10;;;16.60;99.90;;;;;;5126845;27;20307;-56
2023/08/17 06:46:09;;;;;;;6.80;3.83;;;16.60;99.90;;;;;;5131420;27;20217;-57
2023/08/17 06:48:37;;;;;;;3.37;2.57;;;16.60;99.90;;;;;;5113017;27;20215;-54
2023/08/17 06:51:05;;;;;;;4.97;3.37;;;16.60;99.90;;;;;;5129109;27;20250;-52
2023/08/17 06:53:31;;;;;;;5.17;3.20;;;16.60;99.90;;;;;;5117057;27;20201;-56
2023/08/17 06:55:58;;;;;;;6.87;3.30;;;16.60;99.90;;;;;;5131691;27;20260;-53
2023/08/17 06:58:25;;;;;;;4.20;3.20;;;16.50;99.90;;;;;;5097014;27;20228;-54
2023/08/17 07:00:52;;;;;;;4.37;3.23;;;16.50;99.90;;;;;;5122877;27;20197;-56
2023/08/17 07:03:20;;;;;;;7.53;3.50;;;16.50;99.90;;;;;;5099639;27;20332;-55
2023/08/17 07:05:48;;;;;;;3.90;3.17;;;16.50;99.90;;;;;;5119606;27;20277;-55
2023/08/17 07:08:15;;;;;;;7.20;4.37;;;16.50;99.90;;;;;;5110690;27;20220;-56
2023/08/17 07:10:41;;;;;;;7.33;4.00;;;16.50;99.90;;;;;;5115758;27;20213;-56
2023/08/17 07:13:08;;;;;;;5.60;3.40;;;16.50;99.90;;;;;;5116243;27;20859;-55
2023/08/17 07:15:35;;;;;;;4.90;2.97;;;16.60;99.90;;;;;;5132727;27;20220;-54
2023/08/17 07:18:02;;;;;;;6.97;3.90;;;16.60;99.90;;;;;;5128640;27;20955;-56
2023/08/17 07:20:29;;;;;;;4.00;3.60;;;16.60;99.90;;;;;;5115818;27;20207;-55
2023/08/17 07:22:57;;;;;;;6.57;4.23;;;16.60;99.90;;;;;;5136168;27;20325;-54
2023/08/17 07:25:24;;;;;;;4.53;3.97;;;16.60;99.90;;;;;;5109232;27;20225;-55
2023/08/17 07:27:51;;;;;;;6.57;3.40;;;16.60;99.90;;;;;;5118171;27;20193;-56
2023/08/17 07:30:18;;;;;;;6.60;3.70;;;16.60;99.90;;;;;;5128156;27;20694;-56
2023/08/17 07:32:45;;;;;;;6.03;3.60;;;16.60;99.90;;;;;;5121166;27;20954;-56
2023/08/17 07:35:11;;;;;;;5.10;4.00;;;16.60;99.90;;;;;;5106270;27;20224;-53
2023/08/17 07:37:38;;;;;;;6.37;4.13;;;16.60;99.90;;;;;;5123246;27;20259;-56
2023/08/17 07:40:08;;;;;;;5.47;3.90;;;16.60;99.90;;;;;;5117479;27;20208;-55
2023/08/17 07:42:35;;;;;;;4.20;3.80;;;16.60;99.90;;;;;;5124786;27;20279;-56
2023/08/17 07:45:05;;;;;;;3.97;3.63;;;16.60;99.90;;;;;;5127493;27;20238;-57
2023/08/17 07:47:32;;;;;;;5.97;3.90;;;16.60;99.90;;;;;;5128619;27;20193;-56
2023/08/17 07:49:59;;;;;;;3.93;3.63;;;16.60;99.90;;;;;;5109809;27;20219;-56
2023/08/17 07:52:25;;;;;;;4.63;4.10;;;16.70;99.90;;;;;;5128360;27;20627;-57
2023/08/17 07:54:52;;;;;;;9.00;4.00;;;16.70;99.90;;;;;;5129024;27;20263;-57
2023/08/17 07:57:20;;;;;;;6.70;4.13;;;16.70;99.90;;;;;;5119920;27;20212;-53
2023/08/17 07:59:47;;;;;;;6.07;4.13;;;16.70;99.90;;;;;;5126415;27;20184;-56
2023/08/17 08:02:14;;;;;;;4.70;4.20;;;16.80;99.90;;;;;;5133156;27;20192;-57
2023/08/17 08:04:41;;;;;;;8.03;3.97;;;16.80;99.90;;;;;;5113816;27;20281;-53
2023/08/17 08:07:08;;;;;;;8.47;4.77;;;16.80;99.90;;;;;;5132600;27;20212;-57
2023/08/17 08:09:35;;;;;;;3.93;3.63;;;16.80;99.90;;;;;;5128311;27;20191;-52
2023/08/17 08:12:02;;;;;;;4.87;4.27;;;16.80;99.90;;;;;;5112996;27;20893;-55
2023/08/17 08:14:30;;;;;;;6.23;4.23;;;16.90;99.90;;;;;;5117040;27;20266;-52
2023/08/17 08:16:57;;;;;;;5.60;3.73;;;16.80;99.90;;;;;;5104145;27;20213;-57
2023/08/17 08:19:24;;;;;;;8.17;4.63;;;16.90;99.90;;;;;;5112799;27;20192;-54
2023/08/17 08:21:51;;;;;;;10.20;4.40;;;16.90;99.90;;;;;;5095917;27;20209;-56
2023/08/17 08:24:18;;;;;;;8.20;4.60;;;16.90;99.90;;;;;;5115077;27;20290;-57
2023/08/17 08:26:45;;;;;;;5.60;4.70;;;17.00;99.90;;;;;;5111229;27;20204;-55
2023/08/17 08:29:12;;;;;;;4.40;4.00;;;17.00;99.90;;;;;;5111102;27;20205;-56
2023/08/17 08:31:40;;;;;;;6.80;4.07;;;17.00;99.90;;;;;;5116295;27;20273;-57
2023/08/17 08:34:07;;;;;;;5.23;4.57;;;17.00;99.90;;;;;;5113178;27;20209;-57
2023/08/17 08:36:33;;;;;;;5.70;4.73;;;17.00;99.90;;;;;;5098231;27;20292;-57
2023/08/17 08:39:00;;;;;;;4.40;4.00;;;17.10;99.90;;;;;;5106955;27;20269;-55
2023/08/17 08:41:28;;;;;;;5.93;4.23;;;17.10;99.90;;;;;;5118367;27;20195;-55
2023/08/17 08:43:55;;;;;;;4.93;3.97;;;17.10;99.90;;;;;;5101607;27;20197;-54
2023/08/17 08:46:25;;;;;;;5.60;4.50;;;17.10;99.90;;;;;;5121209;27;20227;-54
2023/08/17 08:48:55;;;;;;;5.03;4.30;;;17.10;99.90;;;;;;5116417;27;20201;-57
2023/08/17 08:51:27;;;;;;;5.50;4.17;;;17.00;99.90;;;;;;5107644;27;20774;-56
2023/08/17 08:54:02;;;;;;;9.07;4.50;;;17.00;99.90;;;;;;5112955;27;20203;-57
2023/08/17 08:56:32;;;;;;;5.43;4.13;;;17.10;99.90;;;;;;5116962;27;20212;-56
2023/08/17 08:59:02;;;;;;;4.43;3.63;;;17.10;99.90;;;;;;5113175;27;20965;-54
2023/08/17 09:01:31;;;;;;;3.83;3.37;;;17.10;99.90;;;;;;5121395;27;20550;-55
2023/08/17 09:04:00;;;;;;;4.10;3.70;;;17.20;99.90;;;;;;5118407;27;20260;-58
2023/08/17 09:06:28;;;;;;;3.33;3.03;;;17.20;99.90;;;;;;5107561;27;20299;-57
2023/08/17 09:08:55;;;;;;;4.53;3.57;;;17.20;99.90;;;;;;5098015;27;20193;-58
2023/08/17 09:11:22;;;;;;;5.53;3.30;;;17.20;99.90;;;;;;5123961;27;20248;-56
2023/08/17 09:13:49;;;;;;;5.73;2.93;;;17.30;99.90;;;;;;5113895;27;21643;-57
2023/08/17 09:16:16;;;;;;;5.40;3.50;;;17.20;99.90;;;;;;5123581;27;20225;-56
2023/08/17 09:18:43;;;;;;;4.20;3.03;;;17.20;99.90;;;;;;5115968;27;20185;-55
2023/08/17 09:21:21;;;;;;;3.97;3.17;;;17.20;99.90;;;;;;5123028;27;20201;-57
2023/08/17 09:23:52;;;;;;;3.13;2.83;;;17.30;99.90;;;;;;5092446;27;20240;-58
2023/08/17 09:26:21;;;;;;;4.70;3.07;;;17.30;99.90;;;;;;5123790;27;20212;-57
2023/08/17 09:28:48;;;;;;;4.50;2.97;;;17.30;99.90;;;;;;5112507;27;20205;-57
2023/08/17 09:31:15;;;;;;;6.70;2.97;;;17.20;99.90;;;;;;5111944;27;20196;-57
2023/08/17 09:33:42;;;;;;;4.40;2.77;;;17.30;99.90;;;;;;5123466;27;20646;-55
2023/08/17 09:36:12;;;;;;;4.23;2.83;;;17.30;99.90;;;;;;5113148;27;20602;-57
2023/08/17 09:38:39;;;;;;;2.80;2.60;;;17.30;99.90;;;;;;5108829;27;20267;-56
2023/08/17 09:41:06;;;;;;;5.83;3.00;;;17.30;99.90;;;;;;5111882;27;20997;-54
2023/08/17 09:43:33;;;;;;;4.93;2.57;;;17.30;99.90;;;;;;5116472;27;20184;-60
2023/08/17 09:46:03;;;;;;;2.90;2.70;;;17.30;99.90;;;;;;5111998;27;20300;-60
2023/08/17 09:48:30;;;;;;;4.57;2.93;;;17.40;99.90;;;;;;5119846;27;20783;-60
2023/08/17 09:50:58;;;;;;;7.57;3.40;;;17.40;99.90;;;;;;5114162;27;20284;-59
2023/08/17 09:53:26;;;;;;;2.90;2.37;;;17.50;99.90;;;;;;5093245;27;20329;-60
2023/08/17 09:55:55;;;;;;;2.43;1.70;;;17.50;99.90;;;;;;5110225;27;20705;-59
2023/08/17 09:58:22;;;;;;;2.13;1.60;;;17.40;99.90;;;;;;5110788;27;20905;-59
2023/08/17 10:00:50;;;;;;;3.17;1.50;;;17.30;99.90;;;;;;5107402;27;20217;-60
2023/08/17 10:03:19;;;;;;;1.40;1.30;;;17.20;99.90;;;;;;5111015;27;20205;-52
2023/08/17 10:05:51;;;;;;;1.40;1.30;;;17.30;99.90;;;;;;5113213;27;20738;-57
2023/08/17 10:08:21;;;;;;;1.53;1.30;;;17.30;99.90;;;;;;5108187;27;20208;-54
2023/08/17 10:10:50;;;;;;;1.73;1.30;;;17.20;99.90;;;;;;5104258;27;20261;-59
2023/08/17 10:13:27;;;;;;;1.80;1.30;;;17.20;99.90;;;;;;5107784;27;20207;-50
2023/08/17 10:16:06;;;;;;;4.80;1.20;;;17.20;99.90;;;;;;5117045;27;20212;-58
2023/08/17 10:18:51;;;;;;;2.97;1.27;;;17.20;99.90;;;;;;5128912;27;20327;-54
2023/08/17 10:21:26;;;;;;;1.40;1.30;;;17.10;99.90;;;;;;5124096;27;20620;-55
2023/08/17 10:23:54;;;;;;;1.30;1.20;;;17.10;99.90;;;;;;5129741;27;20199;-58
2023/08/17 10:26:23;;;;;;;2.30;1.67;;;17.10;99.90;;;;;;5090597;27;20236;-54
2023/08/17 10:28:51;;;;;;;3.30;1.60;;;17.10;99.90;;;;;;5130524;27;20184;-59
2023/08/17 10:31:18;;;;;;;2.03;1.50;;;17.20;99.90;;;;;;5122017;27;20283;-53
2023/08/17 10:33:47;;;;;;;1.80;1.70;;;17.20;99.90;;;;;;5120172;27;20185;-58
2023/08/17 10:36:15;;;;;;;1.97;1.60;;;17.20;99.90;;;;;;5120678;27;20201;-53
2023/08/17 10:38:42;;;;;;;1.57;1.47;;;17.20;99.90;;;;;;5121367;27;20852;-58
2023/08/17 10:41:10;;;;;;;3.10;1.80;;;17.20;99.90;;;;;;5102340;27;20695;-51
2023/08/17 10:43:57;;;;;;;2.43;1.70;;;17.20;99.90;;;;;;5112753;27;20203;-56
2023/08/17 10:46:33;;;;;;;2.00;1.40;;;17.20;99.90;;;;;;5105434;27;20220;-59
2023/08/17 10:49:04;;;;;;;2.43;1.90;;;17.20;99.90;;;;;;5125070;27;20283;-59
2023/08/17 10:51:31;;;;;;;2.00;1.90;;;17.20;99.90;;;;;;5109593;27;20332;-55
2023/08/17 10:53:59;;;;;;;2.80;1.80;;;17.10;99.90;;;;;;5126540;27;20267;-60
2023/08/17 10:56:28;;;;;;;2.20;1.80;;;17.10;99.90;;;;;;5097042;27;20224;-58
2023/08/17 10:58:59;;;;;;;2.73;1.77;;;17.10;99.90;;;;;;5110672;27;20197;-60
2023/08/17 11:01:33;;;;;;;3.33;1.63;;;17.10;99.90;;;;;;5110229;27;20205;-60
2023/08/17 11:04:16;;;;;;;4.73;1.80;;;17.10;99.90;;;;;;5106360;27;20201;-55
2023/08/17 11:06:44;;;;;;;5.10;2.40;;;17.10;99.90;;;;;;5119066;27;20615;-54
2023/08/17 11:09:11;;;;;;;3.97;2.10;;;17.20;99.90;;;;;;5117407;27;20261;-60
2023/08/17 11:11:38;;;;;;;6.63;2.73;;;17.20;99.90;;;;;;5098853;27;20232;-54
2023/08/17 11:14:06;;;;;;;5.97;2.50;;;17.30;99.90;;;;;;5103979;27;20193;-54
2023/08/17 11:16:33;;;;;;;4.90;2.83;;;17.30;99.90;;;;;;5107592;27;22561;-60
2023/08/17 11:19:01;;;;;;;5.53;2.97;;;17.40;99.90;;;;;;5114269;27;20204;-59
2023/08/17 11:21:28;;;;;;;4.77;2.83;;;17.50;99.90;;;;;;5125478;27;20886;-60
2023/08/17 11:23:58;;;;;;;3.40;2.73;;;17.60;99.90;;;;;;5113653;27;20550;-60
2023/08/17 11:26:25;;;;;;;3.03;2.83;;;17.60;99.90;;;;;;5120746;27;20914;-58
2023/08/17 11:28:52;;;;;;;4.73;3.03;;;17.60;99.90;;;;;;5111803;27;20215;-60
2023/08/17 11:31:20;;;;;;;3.00;2.50;;;17.60;99.90;;;;;;5103871;27;20201;-53
2023/08/17 11:33:47;;;;;;;3.93;3.00;;;17.70;99.90;;;;;;5113344;27;20208;-55
2023/08/17 11:36:15;;;;;;;4.37;2.63;;;17.60;99.90;;;;;;5114811;27;20219;-61
2023/08/17 11:38:44;;;;;;;5.53;2.80;;;17.60;99.90;;;;;;5123110;27;20272;-55
2023/08/17 11:41:11;;;;;;;5.00;2.80;;;17.60;99.90;;;;;;5127202;27;20196;-58
2023/08/17 11:43:38;;;;;;;3.43;3.13;;;17.60;99.90;;;;;;5109028;27;20284;-52
2023/08/17 11:46:06;;;;;;;6.00;2.50;;;17.60;99.90;;;;;;5117319;27;20224;-60
2023/08/17 11:48:34;;;;;;;2.87;2.60;;;17.50;99.90;;;;;;5118342;27;20245;-50
2023/08/17 11:51:01;;;;;;;3.73;2.60;;;17.50;99.90;;;;;;5127235;27;20217;-53
2023/08/17 11:53:34;;;;;;;2.70;2.03;;;17.50;99.90;;;;;;5134097;27;20248;-51
2023/08/17 11:56:01;;;;;;;4.80;2.30;;;17.40;99.90;;;;;;5117659;27;20269;-47
2023/08/17 11:58:40;;;;;;;3.03;2.57;;;17.30;99.90;;;;;;5110349;27;20216;-53
2023/08/17 12:01:10;;;;;;;3.77;2.63;;;17.30;99.90;;;;;;5115868;27;20211;-63
2023/08/17 12:03:40;;;;;;;5.50;3.00;;;17.20;99.90;;;;;;5122095;27;20196;-57
2023/08/17 12:06:07;;;;;;;4.37;2.40;;;17.10;99.90;;;;;;5119997;27;20585;-60
2023/08/17 12:08:34;;;;;;;4.37;2.50;;;17.20;99.90;;;;;;5124185;27;20193;-58
2023/08/17 12:11:01;;;;;;;4.80;2.43;;;17.20;99.90;;;;;;5112585;27;20582;-56
2023/08/17 12:13:33;;;;;;;2.40;2.20;;;17.30;99.90;;;;;;5109470;27;20204;-54
2023/08/17 12:15:59;;;;;;;2.37;2.13;;;17.30;99.90;;;;;;5112744;27;20240;-54
2023/08/17 12:18:26;;;;;;;2.73;2.07;;;17.30;99.90;;;;;;5126003;27;20792;-55
2023/08/17 12:20:55;;;;;;;2.37;1.90;;;17.40;99.90;;;;;;5111143;27;20544;-56
2023/08/17 12:23:22;;;;;;;2.60;2.20;;;17.40;99.90;;;;;;5113119;27;20197;-56
2023/08/17 12:25:54;;;;;;;3.17;2.30;;;17.40;99.90;;;;;;5119705;27;20216;-57
2023/08/17 12:28:20;;;;;;;3.17;2.30;;;17.40;99.90;;;;;;5128613;27;20249;-58
2023/08/17 12:30:47;;;;;;;2.50;2.20;;;17.50;99.90;;;;;;5104095;27;20211;-54
2023/08/17 12:33:14;;;;;;;3.77;1.93;;;17.50;99.90;;;;;;5121585;27;20200;-58
2023/08/17 12:35:41;;;;;;;2.43;2.07;;;17.40;99.90;;;;;;5111412;27;20264;-56
2023/08/17 12:38:09;;;;;;;2.53;2.33;;;17.40;99.90;;;;;;5131159;27;20238;-58
2023/08/17 12:40:36;;;;;;;2.87;2.20;;;17.40;99.90;;;;;;5123528;27;23162;-55
2023/08/17 12:43:03;;;;;;;4.93;2.20;;;17.30;99.90;;;;;;5121729;27;20676;-54
2023/08/17 12:45:30;;;;;;;2.13;2.00;;;17.30;99.90;;;;;;5104986;27;21054;-55
2023/08/17 12:47:57;;;;;;;3.70;2.20;;;17.30;99.90;;;;;;5112352;27;20251;-58
2023/08/17 12:50:24;;;;;;;2.63;2.40;;;17.30;99.90;;;;;;5086956;27;20205;-57
2023/08/17 12:52:51;;;;;;;3.60;2.43;;;17.40;99.90;;;;;;5121535;27;20252;-56